Have a Safe July 4th! 

Flight Track Log - Related Links

Times and Time Zones

All times are in EDT time to prevent confusion due to time zone crossing. See the EJA922 flight status page for this flight to view local times or setup timezone preferences in your user account.

Time Position Orientation Groundspeed Altitude Reporting Facility
EDT Latitude Longitude Course Direction KTS MPH feet Rate Location/Type
Thu 10:35:05 AM 41.0333 -73.7333 353° North 197 227 3,000  Level New York TRACON
Thu 10:36:05 AM 41.0667 -73.7833 311° West 202 232 4,500 2,526 Climbing New York TRACON
Thu 10:37:56 AM 41.1597 -73.8683 325° Northwest 253 291 10,200 2,526 Climbing Boston Center
Thu 10:38:56 AM 41.2128 -73.7922 47° Northeast 236 272 11,700 1,400 Climbing Boston Center
Thu 10:39:56 AM 41.2617 -73.7047 53° Northeast 319 367 13,000 2,050 Climbing Boston Center
Thu 10:40:00 AM 41.8569 -73.1345 353° North  Level FlightAware Approximate
Thu 10:40:56 AM 41.3403 -73.5625 54° Northeast 384 442 15,800  Level Boston Center
Thu 10:41:56 AM 41.4167 -73.4283 53° Northeast 405 466 18,000 1,750 Climbing Boston Center
Thu 10:42:56 AM 41.4925 -73.3047 51° Northeast 410 472 19,300 1,300 Climbing Boston Center
Thu 10:43:56 AM 41.5642 -73.2031 47° Northeast 417 480 20,600 1,200 Climbing Boston Center
Thu 10:44:56 AM 41.6711 -73.1181 31° Northeast 429 494 21,700 1,000 Climbing Boston Center
Thu 10:45:56 AM 41.7981 -73.1306 356° North 419 482 22,600 850 Climbing Boston Center
Thu 10:46:56 AM 41.8958 -73.1514 351° North 425 489 23,400 1,000 Climbing Boston Center
Thu 10:47:56 AM 42.0542 -73.1811 352° North 449 517 24,600 800 Climbing Boston Center
Thu 10:48:56 AM 42.1914 -73.2050 353° North 471 542 25,000 200 Climbing Boston Center
Thu 10:49:56 AM 42.3478 -73.2239 355° North 491 565 25,000  Level Boston Center
Thu 10:50:56 AM 42.4892 -73.2508 352° North 508 585 25,000  Level Boston Center
Thu 10:51:56 AM 42.6183 -73.2497 360° North 514 592 25,000  Level Boston Center
Thu 10:52:56 AM 42.7400 -73.1328 35° Northeast 502 578 25,000  Level Boston Center
Thu 10:53:56 AM 42.8161 -72.9297 63° Northeast 491 565 25,000  Level Boston Center
Thu 10:54:56 AM 42.8689 -72.7969 61° Northeast 500 575 25,000  Level Boston Center
Thu 10:55:56 AM 42.9525 -72.5875 61° Northeast 510 587 25,000  Level Boston Center
Thu 10:56:56 AM 43.0172 -72.4117 63° Northeast 511 588 25,000  Level Boston Center
Thu 10:57:56 AM 43.0797 -72.2356 64° Northeast 511 588 25,000  Level Boston Center
Thu 10:58:56 AM 43.1417 -72.0617 64° Northeast 504 580 25,000  Level Boston Center
Thu 10:59:56 AM 43.2056 -71.8847 64° Northeast 504 580 25,000  Level Boston Center
Thu 11:00:56 AM 43.2692 -71.7072 64° Northeast 504 580 25,000  Level Boston Center
Thu 11:01:56 AM 43.3367 -71.5294 62° Northeast 512 589 25,000  Level Boston Center
Thu 11:02:56 AM 43.3997 -71.3542 64° Northeast 517 595 25,000  Level Boston Center
Thu 11:03:56 AM 43.4625 -71.1758 64° Northeast 510 587 25,000  Level Boston Center
Thu 11:04:56 AM 43.5272 -70.9969 63° Northeast 516 594 25,000  Level Boston Center
Thu 11:05:56 AM 43.5892 -70.8178 64° Northeast 511 588 25,000  Level Boston Center
Thu 11:06:56 AM 43.6492 -70.6411 65° Northeast 506 582 25,000  Level Boston Center
Thu 11:07:56 AM 43.7108 -70.4639 64° Northeast 506 582 25,000  Level Boston Center
Thu 11:08:56 AM 43.7583 -70.3214 65° Northeast 506 582 25,000  Level Boston Center
Thu 11:09:56 AM 43.8353 -70.1028 64° Northeast 524 603 25,000 -950 Level Boston Center
Thu 11:10:56 AM 43.8922 -69.9308 59° Northeast 504 580 23,100 -2,150 Descending Boston Center
Thu 11:11:00 AM 43.8944 -69.9641 59° Northeast  Level FlightAware Approximate
Thu 11:11:56 AM 43.9508 -69.7608 64° Northeast 493 567 20,700  Level Boston Center
Thu 11:13:08 AM 44.0036 -69.6142 63° Northeast 478 550 18,300 -2,409 Descending Boston Center
Thu 11:14:08 AM 44.0694 -69.4117 66° East 446 513 15,400 -2,600 Descending Boston Center
Thu 11:15:08 AM 44.1156 -69.2706 65° Northeast 420 483 13,100 -2,100 Descending Boston Center
Thu 11:16:08 AM 44.1578 -69.1439 65° Northeast 382 440 11,200 -1,750 Descending Boston Center
Thu 11:17:08 AM 44.1961 -69.0286 65° Northeast 345 397 9,600 -1,600 Descending Boston Center
Thu 11:18:08 AM 44.2325 -68.9222 64° Northeast 316 364 8,000 -1,600 Descending Boston Center
Thu 11:19:08 AM 44.2669 -68.8217 64° Northeast 295 339 6,400 -1,000 Descending Boston Center
Thu 11:20:08 AM 44.2933 -68.7358 67° East 267 307 6,000 -800 Descending Boston Center
Thu 11:21:08 AM 44.3161 -68.6647 66° East 223 257 4,800 -1,200 Descending Boston Center
Thu 11:22:08 AM 44.3406 -68.5878 66° East 211 243 3,600 -950 Descending Boston Center
Thu 11:23:08 AM 44.3631 -68.5136 67° East 206 237 2,900 3,700 Descending Boston Center
Thu 11:24:08 AM 44.3856 -68.4394 67° East 206 237 11,000 4,050 Climbing Boston Center
Thu 11:25:08 AM 44.4100 -68.3650 65° Northeast 206 237 11,000  Level Boston Center
Thu 11:26:08 AM 44.4325 -68.2908 67° East 206 237 11,000  Level Boston Center
Thu 11:27:08 AM 44.4511 -68.2314 66° East 206 237 11,000  Level Boston Center
Thu 11:28:08 AM 44.4511 -68.2314 35° Northeast 206 237 11,000  Level Boston Center

Login

Don't have an account? Register now (free) for customized features, flight alerts, and more!